createdAt,value
2022-08-26T00:00:42.732Z,95.09
2022-08-26T00:03:14.359Z,94.85
2022-08-26T00:05:46.437Z,95.09
2022-08-26T00:08:17.955Z,95.44
2022-08-26T00:10:50.226Z,95.54
2022-08-26T00:13:21.983Z,95.64
2022-08-26T00:15:54.068Z,95.62
2022-08-26T00:18:25.925Z,95.82
2022-08-26T00:20:58.114Z,95.85
2022-08-26T00:23:29.655Z,96.18
2022-08-26T00:26:02.253Z,96.22
2022-08-26T00:28:33.768Z,96.82
2022-08-26T00:31:06.196Z,96.76
2022-08-26T00:33:38.479Z,97.04
2022-08-26T00:36:14.444Z,96.96
2022-08-26T00:38:52.067Z,97.41
2022-08-26T00:41:23.588Z,97.33
2022-08-26T00:43:55.539Z,97.45
2022-08-26T00:46:29.180Z,97.51
2022-08-26T00:49:01.217Z,97.76
2022-08-26T00:51:33.713Z,97.60
2022-08-26T00:54:06.042Z,97.48
2022-08-26T00:56:38.143Z,97.70
2022-08-26T00:59:10.016Z,97.84
2022-08-26T01:01:41.541Z,97.58
2022-08-26T01:04:13.493Z,97.60
2022-08-26T01:06:45.019Z,97.14
2022-08-26T01:09:17.200Z,97.83
2022-08-26T01:11:48.824Z,97.61
2022-08-26T01:14:20.851Z,96.91
2022-08-26T01:16:52.378Z,97.15
2022-08-26T01:19:23.900Z,96.75
2022-08-26T01:21:55.424Z,97.23
2022-08-26T01:24:27.996Z,97.26
2022-08-26T01:26:59.547Z,96.96
2022-08-26T01:29:31.426Z,96.97
2022-08-26T01:32:02.965Z,96.85
2022-08-26T01:34:37.039Z,97.40
2022-08-26T01:37:15.550Z,97.40
2022-08-26T01:39:48.066Z,98.08
2022-08-26T01:42:19.649Z,98.11
2022-08-26T01:44:51.827Z,99.01
2022-08-26T01:47:23.452Z,99.19
2022-08-26T01:49:55.385Z,99.63
2022-08-26T01:52:28.231Z,99.56
2022-08-26T01:55:00.472Z,100.00
2022-08-26T01:57:32.022Z,100.00
2022-08-26T02:00:04.362Z,100.00
2022-08-26T02:02:36.415Z,100.00
2022-08-26T02:05:08.313Z,100.00
2022-08-26T02:07:39.850Z,100.00
2022-08-26T02:10:11.380Z,100.00
2022-08-26T02:12:42.924Z,100.00
2022-08-26T02:15:14.911Z,100.00
2022-08-26T02:17:48.803Z,100.00
2022-08-26T02:20:26.432Z,100.00
2022-08-26T02:22:58.890Z,100.00
2022-08-26T02:25:30.783Z,100.00
2022-08-26T02:28:02.338Z,100.00
2022-08-26T02:30:34.499Z,100.00
2022-08-26T02:33:07.355Z,100.00
2022-08-26T02:35:39.823Z,100.00
2022-08-26T02:38:11.413Z,100.00
2022-08-26T02:40:44.187Z,100.00
2022-08-26T02:43:15.719Z,100.00
2022-08-26T02:45:47.936Z,100.00
2022-08-26T02:48:19.623Z,100.00
2022-08-26T02:50:51.488Z,100.00
2022-08-26T02:53:25.449Z,100.00
2022-08-26T02:55:57.375Z,100.00
2022-08-26T02:58:31.763Z,100.00
2022-08-26T03:01:04.984Z,100.00
2022-08-26T03:03:36.937Z,100.00
2022-08-26T03:06:08.893Z,100.00
2022-08-26T03:08:40.408Z,100.00
2022-08-26T03:11:12.749Z,100.00
2022-08-26T03:13:45.226Z,100.00
2022-08-26T03:16:17.204Z,100.00
2022-08-26T03:18:52.426Z,100.00
2022-08-26T03:21:24.400Z,100.00
2022-08-26T03:23:58.587Z,100.00
2022-08-26T03:26:30.811Z,100.00
2022-08-26T03:29:21.222Z,100.00
2022-08-26T03:31:53.589Z,100.00
2022-08-26T03:34:25.516Z,100.00
2022-08-26T03:36:57.243Z,100.00
2022-08-26T03:39:31.600Z,100.00
2022-08-26T03:42:04.296Z,100.00
2022-08-26T03:44:36.113Z,100.00
2022-08-26T03:47:11.720Z,100.00
2022-08-26T03:49:43.691Z,100.00
2022-08-26T03:52:16.753Z,100.00
2022-08-26T03:54:48.279Z,100.00
2022-08-26T03:57:19.844Z,100.00
2022-08-26T03:59:51.703Z,100.00
2022-08-26T04:02:23.321Z,100.00
2022-08-26T04:04:54.934Z,100.00
2022-08-26T04:07:27.064Z,100.00
2022-08-26T04:09:59.001Z,100.00
2022-08-26T04:12:30.631Z,100.00
2022-08-26T04:15:02.501Z,100.00
2022-08-26T04:17:34.527Z,100.00
2022-08-26T04:20:07.448Z,100.00
2022-08-26T04:22:39.000Z,100.00
2022-08-26T04:25:12.247Z,100.00
2022-08-26T04:27:43.763Z,100.00
2022-08-26T04:30:16.666Z,100.00
2022-08-26T04:32:48.693Z,100.00
2022-08-26T04:35:25.641Z,100.00
2022-08-26T04:37:58.245Z,100.00
2022-08-26T04:40:30.206Z,100.00
2022-08-26T04:43:02.268Z,100.00
2022-08-26T04:45:34.138Z,100.00
2022-08-26T04:48:05.880Z,100.00
2022-08-26T04:50:43.437Z,100.00
2022-08-26T04:53:15.132Z,100.00
2022-08-26T04:55:48.387Z,100.00
2022-08-26T04:58:20.136Z,100.00
2022-08-26T05:00:52.523Z,100.00
2022-08-26T05:03:27.265Z,100.00
2022-08-26T05:06:02.536Z,100.00
2022-08-26T05:08:34.573Z,100.00
2022-08-26T05:11:06.200Z,100.00
2022-08-26T05:13:41.346Z,100.00
2022-08-26T05:16:13.250Z,100.00
2022-08-26T05:18:45.654Z,100.00
2022-08-26T05:21:18.246Z,100.00
2022-08-26T05:23:51.327Z,100.00
2022-08-26T05:26:23.369Z,100.00
2022-08-26T05:28:58.095Z,100.00
2022-08-26T05:31:31.036Z,100.00
2022-08-26T05:34:03.865Z,100.00
2022-08-26T05:36:35.508Z,100.00
2022-08-26T05:39:07.468Z,99.84
2022-08-26T05:41:39.348Z,98.67
2022-08-26T05:44:11.194Z,98.00
2022-08-26T05:46:44.113Z,97.11
2022-08-26T05:49:16.539Z,95.61
2022-08-26T05:51:48.134Z,95.09
2022-08-26T05:54:22.695Z,95.63
2022-08-26T05:56:54.201Z,95.35
2022-08-26T05:59:26.799Z,94.58
2022-08-26T06:01:59.681Z,94.00
2022-08-26T06:04:31.808Z,93.36
2022-08-26T06:07:03.521Z,92.67
2022-08-26T06:09:37.066Z,93.04
2022-08-26T06:12:12.887Z,92.99
2022-08-26T06:14:48.993Z,93.50
2022-08-26T06:17:20.643Z,94.37
2022-08-26T06:19:52.495Z,95.68
2022-08-26T06:22:59.310Z,95.39
2022-08-26T06:25:40.402Z,93.99
2022-08-26T06:28:13.444Z,92.65
2022-08-26T06:30:45.543Z,92.29
2022-08-26T06:33:17.199Z,90.04
2022-08-26T06:35:50.517Z,90.04
2022-08-26T06:38:22.311Z,88.38
2022-08-26T06:40:55.167Z,87.39
2022-08-26T06:43:26.743Z,86.30
2022-08-26T06:45:58.626Z,88.11
2022-08-26T06:48:30.206Z,87.54
2022-08-26T06:51:02.054Z,88.01
2022-08-26T06:53:33.579Z,86.55
2022-08-26T06:56:06.555Z,84.80
2022-08-26T06:58:38.111Z,84.03
2022-08-26T07:01:11.699Z,84.52
2022-08-26T07:03:43.350Z,82.38
2022-08-26T07:06:21.359Z,81.31
2022-08-26T07:08:53.449Z,79.37
2022-08-26T07:11:25.489Z,78.83
2022-08-26T07:13:59.453Z,77.31
2022-08-26T07:16:32.190Z,76.30
2022-08-26T07:19:11.078Z,77.27
2022-08-26T07:21:42.933Z,76.00
2022-08-26T07:24:15.008Z,76.16
2022-08-26T07:26:46.682Z,74.56
2022-08-26T07:29:20.045Z,74.96
2022-08-26T07:31:56.363Z,74.64
2022-08-26T07:34:28.811Z,73.80
2022-08-26T07:37:01.090Z,74.02
2022-08-26T07:39:33.029Z,73.40
2022-08-26T07:42:07.566Z,74.37
2022-08-26T07:44:40.523Z,74.87
2022-08-26T07:47:24.835Z,75.16
2022-08-26T07:49:57.913Z,73.24
2022-08-26T07:52:29.432Z,72.36
2022-08-26T07:55:01.396Z,71.58
2022-08-26T07:57:34.507Z,70.70
2022-08-26T08:00:07.426Z,71.12
2022-08-26T08:02:38.934Z,70.44
2022-08-26T08:05:10.955Z,69.73
2022-08-26T08:07:45.598Z,69.46
2022-08-26T08:10:18.769Z,69.23
2022-08-26T08:12:52.613Z,66.81
2022-08-26T08:15:26.911Z,66.80
2022-08-26T08:18:00.647Z,63.62
2022-08-26T08:20:32.798Z,63.50
2022-08-26T08:23:05.120Z,62.89
2022-08-26T08:25:38.375Z,62.01
2022-08-26T08:28:10.036Z,60.12
2022-08-26T08:30:42.837Z,60.71
2022-08-26T08:33:14.833Z,62.34
2022-08-26T08:35:46.757Z,61.98
2022-08-26T08:38:18.275Z,61.31
2022-08-26T08:40:50.224Z,60.71
2022-08-26T08:43:22.380Z,60.99
2022-08-26T08:45:54.515Z,63.13
2022-08-26T08:48:27.822Z,63.76
2022-08-26T08:51:00.138Z,62.23
2022-08-26T08:53:31.682Z,61.52
2022-08-26T08:56:03.251Z,60.33
2022-08-26T08:58:36.384Z,60.79
2022-08-26T09:01:08.276Z,59.04
2022-08-26T09:03:41.824Z,60.42
2022-08-26T09:06:20.376Z,60.16
2022-08-26T09:08:52.245Z,59.97
2022-08-26T09:11:24.227Z,58.44
2022-08-26T09:13:56.255Z,59.67
2022-08-26T09:16:27.834Z,59.06
2022-08-26T09:18:59.711Z,58.54
2022-08-26T09:21:31.355Z,58.71
2022-08-26T09:24:03.341Z,58.19
2022-08-26T09:26:34.882Z,56.60
2022-08-26T09:29:09.072Z,56.22
2022-08-26T09:31:41.422Z,55.75
2022-08-26T09:34:17.285Z,54.47
2022-08-26T09:36:49.240Z,52.14
2022-08-26T09:39:21.067Z,52.55
2022-08-26T09:41:52.910Z,54.32
2022-08-26T09:44:25.468Z,53.87
2022-08-26T09:46:57.338Z,51.92
2022-08-26T09:49:35.111Z,52.51
2022-08-26T09:52:07.484Z,52.57
2022-08-26T09:54:40.245Z,53.19
2022-08-26T09:57:12.836Z,53.72
2022-08-26T09:59:45.339Z,54.10
2022-08-26T10:02:16.930Z,54.48
2022-08-26T10:04:49.272Z,54.37
2022-08-26T10:07:21.482Z,55.04
2022-08-26T10:09:53.401Z,54.67
2022-08-26T10:12:25.685Z,56.77
2022-08-26T10:14:57.240Z,56.00
2022-08-26T10:17:30.909Z,56.83
2022-08-26T10:20:03.090Z,56.80
2022-08-26T10:22:35.055Z,58.66
2022-08-26T10:25:06.631Z,56.57
2022-08-26T10:27:38.561Z,55.88
2022-08-26T10:30:22.816Z,56.11
2022-08-26T10:32:54.803Z,55.38
2022-08-26T10:35:27.059Z,55.49
2022-08-26T10:37:59.057Z,53.38
2022-08-26T10:40:31.258Z,53.28
2022-08-26T10:43:08.495Z,54.14
2022-08-26T10:45:42.781Z,53.78
2022-08-26T10:48:15.377Z,52.55
2022-08-26T10:50:47.446Z,51.71
2022-08-26T10:53:19.663Z,52.30
2022-08-26T10:55:57.016Z,50.32
2022-08-26T10:58:28.933Z,49.57
2022-08-26T11:01:22.826Z,50.45
2022-08-26T11:03:55.633Z,51.56
2022-08-26T11:06:29.662Z,51.86
2022-08-26T11:09:01.852Z,53.50
2022-08-26T11:11:35.148Z,53.17
2022-08-26T11:14:07.866Z,53.56
2022-08-26T11:16:42.929Z,53.71
2022-08-26T11:19:15.262Z,53.87
2022-08-26T11:21:47.907Z,56.03
2022-08-26T11:24:22.327Z,55.97
2022-08-26T11:26:56.173Z,55.64
2022-08-26T11:29:28.213Z,55.79
2022-08-26T11:31:59.863Z,56.05
2022-08-26T11:34:31.485Z,55.98
2022-08-26T11:37:04.053Z,57.76
2022-08-26T11:39:36.938Z,61.19
2022-08-26T11:42:10.543Z,64.43
2022-08-26T11:44:49.112Z,65.47
2022-08-26T11:47:22.519Z,67.68
2022-08-26T11:49:56.069Z,70.60
2022-08-26T11:52:29.179Z,72.82
2022-08-26T11:55:01.411Z,75.80
2022-08-26T11:57:33.421Z,75.18
2022-08-26T12:00:07.279Z,73.48
2022-08-26T12:02:40.310Z,72.52
2022-08-26T12:05:12.091Z,70.83
2022-08-26T12:07:44.496Z,67.71
2022-08-26T12:10:16.319Z,65.24
2022-08-26T12:12:48.174Z,67.56
2022-08-26T12:15:20.352Z,68.00
2022-08-26T12:17:54.325Z,66.93
2022-08-26T12:20:26.139Z,67.67
2022-08-26T12:22:58.834Z,66.13
2022-08-26T12:25:36.193Z,65.95
2022-08-26T12:28:08.544Z,65.55
2022-08-26T12:30:40.162Z,66.66
2022-08-26T12:33:22.915Z,67.80
2022-08-26T12:35:56.643Z,68.36
2022-08-26T12:38:28.799Z,73.40
2022-08-26T12:41:00.485Z,73.81
2022-08-26T12:43:32.083Z,77.36
2022-08-26T12:46:06.806Z,83.08
2022-08-26T12:48:39.048Z,93.67
2022-08-26T12:51:10.603Z,100.00
2022-08-26T12:53:42.588Z,100.00
2022-08-26T12:56:14.108Z,100.00
2022-08-26T12:58:46.341Z,100.00
2022-08-26T13:01:18.585Z,100.00
2022-08-26T13:03:50.521Z,100.00
2022-08-26T13:06:29.671Z,100.00
2022-08-26T13:09:01.589Z,100.00
2022-08-26T13:11:33.121Z,100.00
2022-08-26T13:14:06.973Z,100.00
2022-08-26T13:16:39.297Z,100.00
2022-08-26T13:19:11.342Z,100.00
2022-08-26T13:21:42.919Z,100.00
2022-08-26T13:24:14.768Z,100.00
2022-08-26T13:26:46.302Z,100.00
2022-08-26T13:29:18.222Z,100.00
2022-08-26T13:31:49.828Z,100.00
2022-08-26T13:34:21.885Z,100.00
2022-08-26T13:36:54.090Z,100.00
2022-08-26T13:39:26.137Z,100.00
2022-08-26T13:41:57.777Z,100.00
2022-08-26T13:44:29.345Z,100.00
2022-08-26T13:47:00.871Z,100.00
2022-08-26T13:49:32.730Z,100.00
2022-08-26T13:52:04.302Z,100.00
2022-08-26T13:54:36.511Z,100.00
2022-08-26T13:57:08.092Z,100.00
2022-08-26T13:59:40.017Z,100.00
2022-08-26T14:02:12.008Z,100.00
2022-08-26T14:04:43.924Z,100.00
2022-08-26T14:07:15.467Z,100.00
2022-08-26T14:09:47.363Z,100.00
2022-08-26T14:12:18.944Z,100.00
2022-08-26T14:14:50.833Z,100.00
2022-08-26T14:17:22.424Z,100.00
2022-08-26T14:19:54.498Z,100.00
2022-08-26T14:22:26.043Z,100.00
2022-08-26T14:24:58.004Z,100.00
2022-08-26T14:27:29.570Z,100.00
2022-08-26T14:30:01.517Z,100.00
2022-08-26T14:32:33.319Z,100.00
2022-08-26T14:35:05.238Z,100.00
2022-08-26T14:37:37.210Z,100.00
2022-08-26T14:40:09.304Z,100.00
2022-08-26T14:42:41.256Z,100.00
2022-08-26T14:45:13.790Z,100.00
2022-08-26T14:47:45.347Z,100.00
2022-08-26T14:50:17.782Z,100.00
2022-08-26T14:53:08.292Z,100.00
2022-08-26T14:55:39.878Z,100.00
2022-08-26T14:58:11.785Z,100.00
2022-08-26T15:00:43.306Z,100.00
2022-08-26T15:05:51.668Z,100.00
2022-08-26T15:08:23.688Z,100.00
2022-08-26T15:10:55.267Z,100.00
2022-08-26T15:13:27.366Z,100.00
2022-08-26T15:15:59.013Z,100.00
2022-08-26T15:18:31.934Z,100.00
2022-08-26T15:21:03.478Z,100.00
2022-08-26T15:23:35.557Z,100.00
2022-08-26T15:26:07.407Z,100.00
2022-08-26T15:28:39.307Z,100.00
2022-08-26T15:31:10.983Z,100.00
2022-08-26T15:33:43.139Z,100.00
2022-08-26T15:36:14.707Z,100.00
2022-08-26T15:38:46.570Z,100.00
2022-08-26T15:41:18.093Z,100.00
2022-08-26T15:43:49.984Z,100.00
2022-08-26T15:46:21.575Z,100.00
2022-08-26T15:48:53.566Z,100.00
2022-08-26T15:51:25.143Z,100.00
2022-08-26T15:53:57.214Z,100.00
2022-08-26T15:56:28.811Z,100.00
2022-08-26T15:59:01.435Z,100.00
2022-08-26T16:01:33.566Z,100.00
2022-08-26T16:04:05.559Z,100.00
2022-08-26T16:06:37.141Z,100.00
2022-08-26T16:09:09.102Z,100.00
2022-08-26T16:11:40.888Z,100.00
2022-08-26T16:14:12.607Z,100.00
2022-08-26T16:16:44.143Z,100.00
2022-08-26T16:19:15.807Z,100.00
2022-08-26T16:21:47.986Z,100.00
2022-08-26T16:24:25.900Z,100.00
2022-08-26T16:26:58.822Z,100.00
2022-08-26T16:29:32.818Z,100.00
2022-08-26T16:32:08.615Z,100.00
2022-08-26T16:34:46.988Z,100.00
2022-08-26T16:37:28.073Z,100.00
2022-08-26T16:40:00.079Z,100.00
2022-08-26T16:42:31.716Z,100.00
2022-08-26T16:45:03.564Z,100.00
2022-08-26T16:47:35.140Z,100.00
2022-08-26T16:50:08.691Z,100.00
2022-08-26T16:52:40.309Z,100.00
2022-08-26T16:55:12.236Z,100.00
2022-08-26T16:57:43.757Z,100.00
2022-08-26T17:00:17.341Z,100.00
2022-08-26T17:02:49.236Z,100.00
2022-08-26T17:05:21.134Z,100.00
2022-08-26T17:07:52.884Z,100.00
2022-08-26T17:10:24.851Z,100.00
2022-08-26T17:12:56.560Z,100.00
2022-08-26T17:15:28.420Z,100.00
2022-08-26T17:18:00.449Z,100.00
2022-08-26T17:20:32.323Z,100.00
2022-08-26T17:23:04.257Z,100.00
2022-08-26T17:25:35.854Z,100.00
2022-08-26T17:28:13.177Z,100.00
2022-08-26T17:30:45.143Z,100.00
2022-08-26T17:33:18.664Z,100.00
2022-08-26T17:35:53.717Z,100.00
2022-08-26T17:38:25.626Z,100.00
2022-08-26T17:40:57.466Z,100.00
2022-08-26T17:43:29.670Z,100.00
2022-08-26T17:46:06.628Z,100.00
2022-08-26T17:48:39.152Z,100.00
2022-08-26T17:51:11.047Z,100.00
2022-08-26T17:53:42.961Z,100.00
2022-08-26T17:56:14.557Z,100.00
2022-08-26T17:58:51.036Z,100.00
2022-08-26T18:01:23.639Z,100.00
2022-08-26T18:04:00.074Z,100.00
2022-08-26T18:06:32.545Z,100.00
2022-08-26T18:09:04.154Z,100.00
2022-08-26T18:11:35.711Z,100.00
2022-08-26T18:14:07.275Z,100.00
2022-08-26T18:16:39.497Z,100.00
2022-08-26T18:19:11.040Z,100.00
2022-08-26T18:21:42.620Z,100.00
2022-08-26T18:24:14.509Z,100.00
2022-08-26T18:26:49.489Z,100.00
2022-08-26T18:29:21.882Z,100.00
2022-08-26T18:31:53.452Z,100.00
2022-08-26T18:34:25.052Z,100.00
2022-08-26T18:37:03.363Z,100.00
2022-08-26T18:39:35.084Z,100.00
2022-08-26T18:42:06.641Z,100.00
2022-08-26T18:44:38.567Z,100.00
2022-08-26T18:47:10.074Z,100.00
2022-08-26T18:49:42.038Z,100.00
2022-08-26T18:52:13.572Z,100.00
2022-08-26T18:54:45.217Z,100.00
2022-08-26T18:57:17.253Z,100.00
2022-08-26T18:59:49.119Z,100.00
2022-08-26T19:02:20.719Z,100.00
2022-08-26T19:04:52.827Z,100.00
2022-08-26T19:07:25.371Z,100.00
2022-08-26T19:09:57.305Z,100.00
2022-08-26T19:12:30.000Z,100.00
2022-08-26T19:15:04.333Z,100.00
2022-08-26T19:17:36.191Z,100.00
2022-08-26T19:20:07.728Z,100.00
2022-08-26T19:22:39.733Z,100.00
2022-08-26T19:25:11.300Z,100.00
2022-08-26T19:27:42.885Z,100.00
2022-08-26T19:30:15.069Z,100.00
2022-08-26T19:32:47.083Z,100.00
2022-08-26T19:35:18.606Z,100.00
2022-08-26T19:37:50.456Z,100.00
2022-08-26T19:40:23.365Z,100.00
2022-08-26T19:42:54.952Z,100.00
2022-08-26T19:45:26.518Z,100.00
2022-08-26T19:47:58.798Z,100.00
2022-08-26T19:50:30.333Z,100.00
2022-08-26T19:53:04.380Z,100.00
2022-08-26T19:55:36.042Z,100.00
2022-08-26T19:58:08.037Z,100.00
2022-08-26T20:00:42.109Z,100.00
2022-08-26T20:03:16.018Z,100.00
2022-08-26T20:05:48.800Z,100.00
2022-08-26T20:08:22.812Z,100.00
2022-08-26T20:10:54.441Z,100.00
2022-08-26T20:13:26.521Z,100.00
2022-08-26T20:15:58.062Z,100.00
2022-08-26T20:18:48.486Z,100.00
2022-08-26T20:21:29.484Z,100.00
2022-08-26T20:24:01.358Z,100.00
2022-08-26T20:26:32.898Z,100.00
2022-08-26T20:29:04.735Z,100.00
2022-08-26T20:31:36.312Z,100.00
2022-08-26T20:34:08.359Z,100.00
2022-08-26T20:36:39.920Z,100.00
2022-08-26T20:39:11.798Z,100.00
2022-08-26T20:41:43.819Z,100.00
2022-08-26T20:44:17.072Z,100.00
2022-08-26T20:46:48.586Z,100.00
2022-08-26T20:49:20.439Z,100.00
2022-08-26T20:51:52.027Z,100.00
2022-08-26T20:54:28.149Z,100.00
2022-08-26T20:57:00.096Z,100.00
2022-08-26T20:59:31.911Z,100.00
2022-08-26T21:02:03.459Z,100.00
2022-08-26T21:04:35.429Z,100.00
2022-08-26T21:07:07.399Z,100.00
2022-08-26T21:09:38.922Z,100.00
2022-08-26T21:12:10.842Z,100.00
2022-08-26T21:14:44.771Z,100.00
2022-08-26T21:17:19.339Z,100.00
2022-08-26T21:19:51.103Z,100.00
2022-08-26T21:22:22.925Z,100.00
2022-08-26T21:24:54.453Z,100.00
2022-08-26T21:27:26.703Z,100.00
2022-08-26T21:29:59.454Z,100.00
2022-08-26T21:32:31.300Z,100.00
2022-08-26T21:35:02.831Z,100.00
2022-08-26T21:37:34.690Z,100.00
2022-08-26T21:40:06.924Z,100.00
2022-08-26T21:42:38.946Z,100.00
2022-08-26T21:45:10.466Z,100.00
2022-08-26T21:47:42.583Z,100.00
2022-08-26T21:50:14.111Z,100.00
2022-08-26T21:52:46.204Z,100.00
2022-08-26T21:55:17.876Z,100.00
2022-08-26T21:57:49.903Z,100.00
2022-08-26T22:00:21.532Z,100.00
2022-08-26T22:02:53.504Z,100.00
2022-08-26T22:05:25.042Z,100.00
2022-08-26T22:07:56.913Z,100.00
2022-08-26T22:10:28.428Z,100.00
2022-08-26T22:13:00.383Z,100.00
2022-08-26T22:15:35.293Z,100.00
2022-08-26T22:18:09.363Z,100.00
2022-08-26T22:20:41.007Z,100.00
2022-08-26T22:23:12.927Z,100.00
2022-08-26T22:25:44.456Z,100.00
2022-08-26T22:28:16.340Z,100.00
2022-08-26T22:30:48.404Z,100.00
2022-08-26T22:33:20.298Z,100.00
2022-08-26T22:35:53.094Z,100.00
2022-08-26T22:38:25.134Z,100.00
2022-08-26T22:40:57.212Z,100.00
2022-08-26T22:43:30.447Z,100.00
2022-08-26T22:46:03.678Z,100.00
2022-08-26T22:48:35.557Z,100.00
2022-08-26T22:51:07.549Z,100.00
2022-08-26T22:53:42.165Z,100.00
2022-08-26T22:56:15.419Z,100.00
2022-08-26T22:58:47.792Z,100.00
2022-08-26T23:01:20.740Z,100.00
2022-08-26T23:03:52.870Z,100.00
2022-08-26T23:06:24.920Z,100.00
2022-08-26T23:08:56.694Z,100.00
2022-08-26T23:11:28.804Z,100.00
2022-08-26T23:14:02.847Z,100.00
2022-08-26T23:16:39.409Z,100.00
2022-08-26T23:19:11.252Z,100.00
2022-08-26T23:21:43.210Z,100.00
2022-08-26T23:24:14.828Z,100.00
2022-08-26T23:26:46.791Z,100.00
2022-08-26T23:29:18.456Z,100.00
2022-08-26T23:31:51.045Z,100.00
2022-08-26T23:34:41.598Z,100.00
2022-08-26T23:37:13.565Z,100.00
2022-08-26T23:39:45.582Z,100.00
2022-08-26T23:42:17.992Z,100.00
2022-08-26T23:44:49.706Z,100.00
2022-08-26T23:47:21.898Z,100.00
2022-08-26T23:49:53.534Z,100.00
2022-08-26T23:52:44.481Z,100.00
2022-08-26T23:55:16.686Z,100.00
2022-08-26T23:57:48.415Z,100.00
